createdAt,value
2019-05-11T00:00:32.731Z,90.80
2019-05-11T00:02:59.298Z,91.50
2019-05-11T00:05:25.901Z,91.50
2019-05-11T00:07:52.137Z,91.60
2019-05-11T00:10:18.430Z,92.40
2019-05-11T00:12:44.615Z,92.40
2019-05-11T00:15:10.919Z,92.70
2019-05-11T00:17:37.475Z,92.50
2019-05-11T00:20:06.913Z,92.40
2019-05-11T00:22:33.316Z,92.10
2019-05-11T00:24:59.844Z,91.10
2019-05-11T00:27:26.090Z,90.70
2019-05-11T00:29:52.352Z,90.40
2019-05-11T00:32:22.616Z,89.90
2019-05-11T00:34:47.257Z,90.20
2019-05-11T00:37:13.842Z,90.10
2019-05-11T00:39:40.059Z,90.10
2019-05-11T00:42:06.329Z,90.00
2019-05-11T00:44:32.935Z,90.10
2019-05-11T00:46:59.188Z,90.20
2019-05-11T00:49:25.387Z,89.90
2019-05-11T00:51:51.654Z,89.90
2019-05-11T00:54:17.887Z,90.20
2019-05-11T00:56:44.119Z,90.30
2019-05-11T00:59:21.381Z,90.30
2019-05-11T01:01:39.019Z,90.20
2019-05-11T01:04:05.656Z,90.30
2019-05-11T01:06:32.321Z,91.20
2019-05-11T01:08:58.928Z,91.20
2019-05-11T01:11:25.167Z,91.60
2019-05-11T01:13:51.375Z,92.00
2019-05-11T01:16:17.629Z,91.80
2019-05-11T01:18:44.263Z,92.40
2019-05-11T01:21:10.877Z,92.50
2019-05-11T01:23:37.139Z,92.00
2019-05-11T01:26:03.350Z,91.60
2019-05-11T01:28:29.600Z,91.80
2019-05-11T01:30:55.814Z,92.00
2019-05-11T01:33:22.427Z,91.80
2019-05-11T01:35:51.083Z,92.20
2019-05-11T01:38:16.710Z,92.30
2019-05-11T01:40:57.762Z,92.10
2019-05-11T01:43:11.445Z,91.60
2019-05-11T01:45:37.777Z,92.10
2019-05-11T01:48:04.335Z,92.20
2019-05-11T01:50:30.539Z,92.40
2019-05-11T01:52:56.792Z,92.30
2019-05-11T01:55:23.424Z,92.40
2019-05-11T01:57:50.096Z,92.60
2019-05-11T02:00:16.877Z,92.60
2019-05-11T02:02:43.345Z,92.80
2019-05-11T02:05:28.518Z,93.10
2019-05-11T02:07:55.746Z,93.00
2019-05-11T02:10:22.181Z,93.10
2019-05-11T02:12:48.751Z,92.80
2019-05-11T02:15:15.348Z,92.50
2019-05-11T02:17:41.606Z,93.00
2019-05-11T02:20:07.924Z,92.00
2019-05-11T02:22:34.480Z,91.70
2019-05-11T02:25:01.104Z,90.80
2019-05-11T02:27:27.380Z,90.50
2019-05-11T02:29:53.965Z,90.40
2019-05-11T02:32:20.228Z,91.10
2019-05-11T02:34:46.835Z,91.00
2019-05-11T02:37:13.063Z,91.20
2019-05-11T02:39:39.808Z,91.70
2019-05-11T02:42:06.531Z,91.50
2019-05-11T02:44:33.015Z,90.80
2019-05-11T02:46:59.628Z,90.90
2019-05-11T02:49:28.130Z,91.20
2019-05-11T02:51:54.745Z,91.10
2019-05-11T02:54:21.268Z,91.00
2019-05-11T02:56:47.861Z,91.10
2019-05-11T02:59:14.441Z,91.50
2019-05-11T03:01:40.695Z,91.60
2019-05-11T03:04:06.940Z,92.10
2019-05-11T03:06:33.595Z,92.00
2019-05-11T03:08:59.802Z,92.30
2019-05-11T03:11:26.443Z,92.30
2019-05-11T03:13:53.064Z,91.90
2019-05-11T03:16:19.251Z,92.00
2019-05-11T03:18:45.531Z,92.30
2019-05-11T03:21:12.140Z,93.00
2019-05-11T03:23:38.397Z,93.00
2019-05-11T03:26:05.117Z,92.60
2019-05-11T03:28:31.708Z,92.10
2019-05-11T03:30:58.297Z,91.90
2019-05-11T03:33:25.077Z,92.60
2019-05-11T03:35:51.573Z,93.00
2019-05-11T03:38:17.796Z,93.10
2019-05-11T03:40:44.058Z,93.40
2019-05-11T03:43:10.680Z,93.30
2019-05-11T03:45:38.152Z,92.70
2019-05-11T03:48:04.782Z,92.00
2019-05-11T03:50:31.431Z,92.20
2019-05-11T03:52:58.023Z,91.90
2019-05-11T03:55:24.305Z,91.60
2019-05-11T03:57:50.915Z,91.80
2019-05-11T04:00:17.367Z,91.50
2019-05-11T04:02:43.665Z,92.10
2019-05-11T04:05:10.452Z,92.50
2019-05-11T04:07:37.048Z,93.00
2019-05-11T04:10:05.585Z,92.80
2019-05-11T04:12:35.173Z,92.20
2019-05-11T04:15:01.096Z,92.50
2019-05-11T04:17:27.802Z,92.60
2019-05-11T04:19:54.352Z,92.90
2019-05-11T04:22:20.748Z,93.10
2019-05-11T04:24:46.962Z,93.30
2019-05-11T04:27:18.929Z,92.90
2019-05-11T04:29:42.544Z,93.10
2019-05-11T04:32:08.782Z,93.00
2019-05-11T04:34:35.020Z,93.10
2019-05-11T04:37:01.745Z,93.70
2019-05-11T04:39:27.952Z,93.40
2019-05-11T04:41:54.080Z,93.40
2019-05-11T04:44:20.344Z,93.40
2019-05-11T04:46:46.956Z,93.50
2019-05-11T04:49:13.216Z,93.90
2019-05-11T04:51:39.821Z,94.00
2019-05-11T04:54:06.061Z,94.00
2019-05-11T04:56:32.713Z,94.10
2019-05-11T04:58:59.336Z,93.80
2019-05-11T05:01:25.700Z,93.60
2019-05-11T05:03:54.090Z,93.60
2019-05-11T05:06:23.995Z,93.80
2019-05-11T05:08:48.742Z,94.00
2019-05-11T05:11:14.975Z,93.50
2019-05-11T05:13:41.227Z,93.60
2019-05-11T05:16:07.436Z,93.70
2019-05-11T05:18:33.708Z,93.10
2019-05-11T05:21:00.318Z,92.80
2019-05-11T05:23:26.963Z,92.50
2019-05-11T05:25:53.580Z,92.90
2019-05-11T05:28:19.842Z,92.20
2019-05-11T05:30:46.470Z,92.40
2019-05-11T05:33:13.089Z,92.70
2019-05-11T05:35:39.343Z,93.00
2019-05-11T05:38:05.983Z,92.70
2019-05-11T05:40:32.619Z,92.60
2019-05-11T05:42:59.226Z,92.90
2019-05-11T05:45:25.501Z,93.00
2019-05-11T05:47:52.104Z,92.80
2019-05-11T05:50:18.486Z,92.70
2019-05-11T05:52:44.964Z,92.50
2019-05-11T05:55:11.286Z,92.80
2019-05-11T05:57:37.859Z,93.00
2019-05-11T06:00:05.571Z,92.80
2019-05-11T06:02:31.953Z,92.80
2019-05-11T06:04:58.567Z,93.10
2019-05-11T06:07:24.823Z,93.30
2019-05-11T06:09:50.933Z,92.80
2019-05-11T06:12:17.255Z,92.60
2019-05-11T06:14:43.607Z,92.90
2019-05-11T06:17:10.111Z,92.90
2019-05-11T06:19:36.439Z,93.30
2019-05-11T06:22:02.987Z,93.50
2019-05-11T06:24:29.219Z,93.20
2019-05-11T06:26:55.471Z,93.50
2019-05-11T06:29:22.098Z,93.20
2019-05-11T06:31:48.757Z,93.20
2019-05-11T06:34:14.938Z,93.10
2019-05-11T06:36:41.207Z,93.00
2019-05-11T06:39:07.907Z,93.10
2019-05-11T06:41:35.480Z,92.70
2019-05-11T06:44:02.468Z,92.40
2019-05-11T06:46:28.950Z,92.40
2019-05-11T06:48:55.231Z,92.10
2019-05-11T06:51:21.514Z,91.90
2019-05-11T06:53:47.660Z,91.90
2019-05-11T06:56:13.887Z,91.60
2019-05-11T06:58:40.091Z,91.70
2019-05-11T07:01:06.428Z,91.80
2019-05-11T07:03:32.990Z,91.50
2019-05-11T07:05:59.207Z,91.30
2019-05-11T07:08:25.461Z,91.10
2019-05-11T07:10:51.685Z,91.30
2019-05-11T07:13:17.920Z,90.90
2019-05-11T07:15:44.630Z,91.10
2019-05-11T07:18:11.195Z,90.80
2019-05-11T07:20:49.436Z,90.40
2019-05-11T07:23:05.671Z,88.10
2019-05-11T07:25:32.035Z,88.50
2019-05-11T07:27:58.536Z,88.90
2019-05-11T07:30:24.849Z,85.30
2019-05-11T07:32:50.991Z,83.00
2019-05-11T07:35:18.805Z,83.20
2019-05-11T07:37:47.712Z,82.30
2019-05-11T07:40:13.583Z,80.90
2019-05-11T07:42:39.783Z,78.30
2019-05-11T07:45:08.905Z,78.60
2019-05-11T07:47:37.783Z,76.50
2019-05-11T07:50:08.238Z,76.20
2019-05-11T07:52:34.327Z,73.60
2019-05-11T07:55:00.583Z,73.10
2019-05-11T07:57:28.364Z,69.80
2019-05-11T07:59:55.216Z,66.80
2019-05-11T08:02:21.568Z,65.40
2019-05-11T08:04:48.268Z,63.40
2019-05-11T08:07:14.723Z,65.30
2019-05-11T08:09:41.228Z,66.30
2019-05-11T08:12:08.996Z,66.10
2019-05-11T08:14:51.995Z,65.40
2019-05-11T08:17:03.396Z,66.10
2019-05-11T08:19:29.876Z,62.70
2019-05-11T08:21:58.237Z,64.10
2019-05-11T08:24:24.529Z,63.20
2019-05-11T08:26:50.731Z,61.00
2019-05-11T08:29:18.532Z,61.70
2019-05-11T08:31:48.618Z,62.90
2019-05-11T08:34:14.596Z,62.60
2019-05-11T08:36:40.807Z,58.90
2019-05-11T08:39:07.863Z,58.70
2019-05-11T08:41:35.292Z,57.10
2019-05-11T08:44:01.416Z,57.70
2019-05-11T08:46:28.063Z,58.70
2019-05-11T08:48:54.366Z,57.10
2019-05-11T08:51:20.583Z,59.60
2019-05-11T08:53:48.038Z,60.20
2019-05-11T08:56:14.740Z,58.20
2019-05-11T08:58:40.951Z,54.70
2019-05-11T09:01:08.847Z,53.10
2019-05-11T09:03:35.499Z,52.80
2019-05-11T09:06:01.610Z,53.00
2019-05-11T09:08:28.458Z,54.20
2019-05-11T09:10:54.648Z,55.50
2019-05-11T09:13:20.781Z,56.00
2019-05-11T09:15:48.402Z,54.20
2019-05-11T09:18:14.951Z,50.80
2019-05-11T09:20:41.151Z,53.90
2019-05-11T09:23:08.254Z,56.30
2019-05-11T09:25:34.796Z,56.40
2019-05-11T09:28:00.909Z,55.50
2019-05-11T09:30:28.798Z,56.90
2019-05-11T09:32:55.076Z,57.20
2019-05-11T09:35:21.338Z,58.30
2019-05-11T09:37:48.455Z,59.70
2019-05-11T09:40:15.304Z,56.40
2019-05-11T09:42:41.517Z,53.20
2019-05-11T09:45:08.371Z,50.20
2019-05-11T09:47:34.593Z,54.70
2019-05-11T09:50:00.840Z,59.00
2019-05-11T09:52:32.243Z,57.30
2019-05-11T09:54:58.002Z,55.10
2019-05-11T09:57:24.410Z,51.60
2019-05-11T09:59:50.620Z,48.00
2019-05-11T10:02:20.411Z,47.10
2019-05-11T10:04:44.793Z,45.40
2019-05-11T10:07:11.366Z,43.00
2019-05-11T10:09:38.343Z,44.80
2019-05-11T10:12:05.014Z,43.90
2019-05-11T10:14:31.119Z,44.90
2019-05-11T10:16:58.442Z,46.00
2019-05-11T10:19:25.074Z,43.60
2019-05-11T10:21:51.446Z,47.00
2019-05-11T10:24:17.844Z,48.70
2019-05-11T10:26:44.467Z,52.00
2019-05-11T10:29:10.713Z,51.50
2019-05-11T10:31:38.579Z,48.80
2019-05-11T10:34:05.145Z,42.70
2019-05-11T10:36:31.414Z,42.20
2019-05-11T10:38:58.794Z,45.00
2019-05-11T10:41:25.470Z,48.40
2019-05-11T10:43:51.704Z,47.00
2019-05-11T10:46:23.080Z,43.20
2019-05-11T10:48:48.351Z,44.60
2019-05-11T10:51:14.395Z,43.20
2019-05-11T10:53:40.774Z,42.60
2019-05-11T10:56:08.778Z,44.20
2019-05-11T10:58:37.662Z,43.80
2019-05-11T11:01:03.649Z,44.70
2019-05-11T11:03:30.161Z,43.10
2019-05-11T11:05:58.052Z,42.00
2019-05-11T11:08:24.670Z,41.40
2019-05-11T11:10:50.803Z,41.80
2019-05-11T11:13:18.933Z,45.00
2019-05-11T11:15:45.451Z,45.60
2019-05-11T11:18:12.066Z,43.00
2019-05-11T11:20:38.542Z,41.70
2019-05-11T11:23:05.421Z,39.90
2019-05-11T11:25:31.582Z,41.00
2019-05-11T11:27:57.961Z,43.20
2019-05-11T11:30:24.682Z,42.40
2019-05-11T11:32:51.063Z,42.30
2019-05-11T11:35:18.721Z,44.80
2019-05-11T11:37:47.730Z,44.80
2019-05-11T11:40:17.617Z,42.30
2019-05-11T11:42:43.762Z,40.40
2019-05-11T11:45:11.471Z,43.70
2019-05-11T11:47:38.562Z,45.60
2019-05-11T11:50:09.167Z,42.50
2019-05-11T11:52:38.105Z,42.50
2019-05-11T11:55:10.306Z,43.80
2019-05-11T11:57:38.036Z,46.80
2019-05-11T12:00:09.189Z,45.20
2019-05-11T12:02:35.346Z,41.10
2019-05-11T12:05:03.346Z,40.80
2019-05-11T12:07:29.822Z,38.50
2019-05-11T12:09:58.583Z,39.00
2019-05-11T12:12:24.351Z,37.10
2019-05-11T12:14:50.967Z,34.30
2019-05-11T12:17:18.239Z,36.30
2019-05-11T12:19:44.657Z,36.60
2019-05-11T12:22:10.938Z,39.30
2019-05-11T12:24:37.635Z,42.70
2019-05-11T12:27:04.178Z,45.80
2019-05-11T12:29:30.784Z,43.20
2019-05-11T12:31:59.027Z,40.10
2019-05-11T12:34:25.294Z,41.30
2019-05-11T12:36:51.530Z,41.60
2019-05-11T12:39:19.195Z,42.90
2019-05-11T12:41:47.794Z,45.40
2019-05-11T12:44:13.932Z,43.00
2019-05-11T12:46:40.136Z,41.60
2019-05-11T12:49:07.848Z,42.20
2019-05-11T12:51:34.300Z,42.40
2019-05-11T12:54:00.487Z,46.40
2019-05-11T12:56:27.744Z,46.20
2019-05-11T12:58:54.174Z,45.10
2019-05-11T13:01:20.399Z,42.10
2019-05-11T13:03:49.222Z,43.00
2019-05-11T13:06:15.398Z,42.70
2019-05-11T13:08:41.992Z,42.50
2019-05-11T13:11:08.550Z,43.40
2019-05-11T13:13:34.687Z,43.90
2019-05-11T13:16:01.013Z,44.80
2019-05-11T13:18:27.945Z,45.30
2019-05-11T13:20:54.310Z,46.00
2019-05-11T13:23:20.502Z,44.70
2019-05-11T13:25:48.045Z,46.70
2019-05-11T13:28:14.617Z,48.00
2019-05-11T13:30:40.906Z,49.80
2019-05-11T13:33:08.587Z,49.60
2019-05-11T13:35:37.537Z,46.00
2019-05-11T13:38:03.692Z,48.80
2019-05-11T13:40:29.873Z,48.80
2019-05-11T13:42:58.083Z,47.10
2019-05-11T13:45:24.367Z,48.40
2019-05-11T13:47:55.457Z,49.10
2019-05-11T13:50:18.879Z,49.20
2019-05-11T13:52:45.115Z,47.00
2019-05-11T13:55:11.692Z,47.20
2019-05-11T13:57:38.939Z,48.10
2019-05-11T14:00:08.440Z,50.00
2019-05-11T14:02:34.780Z,50.90
2019-05-11T14:05:00.992Z,49.40
2019-05-11T14:07:27.655Z,49.00
2019-05-11T14:09:54.025Z,49.30
2019-05-11T14:12:20.269Z,50.10
2019-05-11T14:14:48.080Z,48.60
2019-05-11T14:17:14.379Z,50.40
2019-05-11T14:19:40.616Z,50.60
2019-05-11T14:22:08.627Z,50.40
2019-05-11T14:24:34.851Z,51.30
2019-05-11T14:27:00.978Z,51.50
2019-05-11T14:29:28.369Z,51.10
2019-05-11T14:31:55.042Z,51.20
2019-05-11T14:34:21.285Z,48.80
2019-05-11T14:36:48.028Z,49.10
2019-05-11T14:39:14.515Z,48.60
2019-05-11T14:41:40.750Z,48.40
2019-05-11T14:44:08.835Z,48.20
2019-05-11T14:46:34.962Z,48.80
2019-05-11T14:49:01.075Z,49.40
2019-05-11T14:51:28.270Z,48.90
2019-05-11T14:53:56.674Z,47.60
2019-05-11T14:56:22.763Z,47.60
2019-05-11T14:58:49.376Z,49.10
2019-05-11T15:01:18.091Z,48.60
2019-05-11T15:03:43.878Z,47.00
2019-05-11T15:06:10.014Z,46.60
2019-05-11T15:08:38.548Z,48.00
2019-05-11T15:11:04.337Z,47.10
2019-05-11T15:13:30.538Z,47.60
2019-05-11T15:15:58.539Z,47.60
2019-05-11T15:18:37.928Z,47.90
2019-05-11T15:20:52.707Z,47.40
2019-05-11T15:23:18.942Z,47.80
2019-05-11T15:25:45.058Z,47.00
2019-05-11T15:28:11.163Z,46.80
2019-05-11T15:30:38.465Z,47.10
2019-05-11T15:33:04.685Z,48.80
2019-05-11T15:35:31.025Z,50.10
2019-05-11T15:37:58.252Z,51.00
2019-05-11T15:40:27.775Z,51.70
2019-05-11T15:42:53.846Z,52.00
2019-05-11T15:45:20.078Z,52.20
2019-05-11T15:47:48.406Z,52.90
2019-05-11T15:50:15.903Z,53.20
2019-05-11T15:52:42.007Z,54.00
2019-05-11T15:55:09.510Z,53.30
2019-05-11T15:57:35.763Z,53.60
2019-05-11T16:00:04.069Z,53.80
2019-05-11T16:02:30.300Z,53.20
2019-05-11T16:04:58.251Z,53.30
2019-05-11T16:07:24.495Z,53.40
2019-05-11T16:09:50.914Z,55.30
2019-05-11T16:12:18.178Z,55.90
2019-05-11T16:14:44.910Z,55.70
2019-05-11T16:17:11.151Z,55.50
2019-05-11T16:19:38.028Z,54.80
2019-05-11T16:22:05.460Z,53.50
2019-05-11T16:24:31.738Z,53.50
2019-05-11T16:26:58.958Z,53.50
2019-05-11T16:29:27.960Z,54.30
2019-05-11T16:31:53.313Z,55.00
2019-05-11T16:34:19.545Z,54.30
2019-05-11T16:36:47.931Z,53.90
2019-05-11T16:39:13.914Z,53.60
2019-05-11T16:41:40.157Z,54.50
2019-05-11T16:44:07.834Z,53.80
2019-05-11T16:46:34.592Z,55.00
2019-05-11T16:49:01.949Z,55.30
2019-05-11T16:51:28.543Z,54.70
2019-05-11T16:53:54.933Z,55.50
2019-05-11T16:56:21.145Z,55.70
2019-05-11T16:58:48.457Z,54.60
2019-05-11T17:01:15.213Z,54.30
2019-05-11T17:03:41.458Z,53.50
2019-05-11T17:06:08.283Z,52.00
2019-05-11T17:08:35.061Z,52.60
2019-05-11T17:11:01.305Z,53.70
2019-05-11T17:13:27.531Z,54.50
2019-05-11T17:15:53.885Z,54.10
2019-05-11T17:18:20.217Z,54.30
2019-05-11T17:20:46.913Z,54.50
2019-05-11T17:23:13.150Z,54.10
2019-05-11T17:25:39.413Z,53.70
2019-05-11T17:28:09.248Z,54.30
2019-05-11T17:30:33.713Z,55.30
2019-05-11T17:32:59.992Z,55.40
2019-05-11T17:35:26.240Z,55.60
2019-05-11T17:37:52.461Z,56.20
2019-05-11T17:40:23.105Z,56.00
2019-05-11T17:42:48.047Z,56.20
2019-05-11T17:45:14.613Z,56.70
2019-05-11T17:47:40.898Z,57.80
2019-05-11T17:50:08.129Z,57.10
2019-05-11T17:52:34.538Z,55.90
2019-05-11T17:55:00.745Z,55.40
2019-05-11T17:57:27.788Z,55.80
2019-05-11T17:59:54.433Z,57.30
2019-05-11T18:02:20.760Z,58.00
2019-05-11T18:04:49.189Z,57.30
2019-05-11T18:07:25.081Z,57.50
2019-05-11T18:09:43.158Z,57.80
2019-05-11T18:12:09.857Z,58.00
2019-05-11T18:14:39.362Z,58.10
2019-05-11T18:17:04.600Z,58.40
2019-05-11T18:19:30.822Z,58.80
2019-05-11T18:21:57.760Z,59.00
2019-05-11T18:24:24.109Z,59.60
2019-05-11T18:26:50.461Z,60.20
2019-05-11T18:29:18.214Z,60.90
2019-05-11T18:31:44.549Z,61.60
2019-05-11T18:34:10.810Z,62.20
2019-05-11T18:36:38.229Z,62.20
2019-05-11T18:39:06.496Z,62.20
2019-05-11T18:41:33.355Z,61.90
2019-05-11T18:43:59.622Z,62.30
2019-05-11T18:46:27.887Z,63.10
2019-05-11T18:48:54.221Z,63.50
2019-05-11T18:51:20.518Z,64.20
2019-05-11T18:53:48.265Z,64.40
2019-05-11T18:56:15.454Z,65.60
2019-05-11T18:58:42.028Z,65.40
2019-05-11T19:01:08.633Z,66.10
2019-05-11T19:03:34.901Z,66.50
2019-05-11T19:06:01.249Z,66.40
2019-05-11T19:08:27.983Z,66.80
2019-05-11T19:10:54.813Z,66.90
2019-05-11T19:13:21.062Z,66.60
2019-05-11T19:15:48.745Z,67.00
2019-05-11T19:18:15.557Z,67.30
2019-05-11T19:20:45.820Z,67.20
2019-05-11T19:23:09.902Z,67.80
2019-05-11T19:25:37.523Z,67.70
2019-05-11T19:28:04.158Z,67.50
2019-05-11T19:30:30.510Z,67.40
2019-05-11T19:32:58.895Z,68.10
2019-05-11T19:35:24.816Z,68.00
2019-05-11T19:37:51.048Z,68.10
2019-05-11T19:40:17.308Z,68.30
2019-05-11T19:42:59.260Z,68.90
2019-05-11T19:45:29.349Z,69.30
2019-05-11T19:47:57.790Z,69.50
2019-05-11T19:50:24.116Z,69.50
2019-05-11T19:52:50.327Z,69.60
2019-05-11T19:55:17.893Z,69.60
2019-05-11T19:57:44.717Z,69.80
2019-05-11T20:00:11.951Z,69.80
2019-05-11T20:02:39.065Z,70.30
2019-05-11T20:05:06.018Z,70.80
2019-05-11T20:07:32.314Z,71.10
2019-05-11T20:09:58.560Z,71.00
2019-05-11T20:12:24.986Z,71.00
2019-05-11T20:14:51.457Z,71.20
2019-05-11T20:17:20.689Z,71.10
2019-05-11T20:19:48.910Z,71.20
2019-05-11T20:22:16.412Z,71.10
2019-05-11T20:24:42.690Z,71.40
2019-05-11T20:27:09.020Z,71.30
2019-05-11T20:29:35.299Z,71.10
2019-05-11T20:32:01.537Z,71.30
2019-05-11T20:34:29.010Z,71.70
2019-05-11T20:36:58.537Z,72.00
2019-05-11T20:39:24.569Z,71.90
2019-05-11T20:41:50.802Z,72.40
2019-05-11T20:44:17.948Z,72.60
2019-05-11T20:46:44.835Z,73.10
2019-05-11T20:49:11.479Z,73.00
2019-05-11T20:51:38.112Z,73.90
2019-05-11T20:54:04.772Z,74.10
2019-05-11T20:56:31.079Z,74.20
2019-05-11T20:58:59.336Z,74.40
2019-05-11T21:01:28.332Z,74.20
2019-05-11T21:03:54.662Z,74.40
2019-05-11T21:06:20.899Z,74.00
2019-05-11T21:08:48.260Z,74.00
2019-05-11T21:11:14.882Z,73.90
2019-05-11T21:13:41.724Z,74.20
2019-05-11T21:16:08.631Z,74.40
2019-05-11T21:18:35.258Z,74.60
2019-05-11T21:21:01.851Z,74.60
2019-05-11T21:23:29.006Z,74.90
2019-05-11T21:25:55.554Z,75.00
2019-05-11T21:28:22.166Z,74.90
2019-05-11T21:30:48.854Z,75.60
2019-05-11T21:33:17.754Z,75.10
2019-05-11T21:35:43.885Z,75.40
2019-05-11T21:38:10.390Z,75.10
2019-05-11T21:40:38.109Z,75.80
2019-05-11T21:43:08.520Z,75.70
2019-05-11T21:45:37.553Z,76.00
2019-05-11T21:48:03.497Z,75.90
2019-05-11T21:50:30.106Z,75.50
2019-05-11T21:52:58.783Z,75.80
2019-05-11T21:55:24.801Z,75.90
2019-05-11T21:57:51.283Z,76.00
2019-05-11T22:00:18.969Z,76.40
2019-05-11T22:02:45.384Z,76.20
2019-05-11T22:05:11.767Z,76.50
2019-05-11T22:07:38.717Z,76.40
2019-05-11T22:10:08.876Z,76.80
2019-05-11T22:12:35.317Z,76.10
2019-05-11T22:15:02.458Z,75.80
2019-05-11T22:17:30.817Z,76.10
2019-05-11T22:19:58.484Z,76.50
2019-05-11T22:22:25.649Z,76.80
2019-05-11T22:24:52.869Z,76.70
2019-05-11T22:27:19.517Z,76.10
2019-05-11T22:29:48.382Z,76.20
2019-05-11T22:32:14.437Z,76.40
2019-05-11T22:34:40.760Z,76.40
2019-05-11T22:37:08.645Z,76.10
2019-05-11T22:39:35.188Z,76.30
2019-05-11T22:42:01.806Z,76.30
2019-05-11T22:44:28.474Z,76.00
2019-05-11T22:46:55.088Z,76.20
2019-05-11T22:49:21.757Z,76.40
2019-05-11T22:51:48.453Z,76.80
2019-05-11T22:54:15.021Z,77.20
2019-05-11T22:56:41.641Z,77.10
2019-05-11T22:59:08.422Z,77.10
2019-05-11T23:01:35.021Z,77.50
2019-05-11T23:04:01.549Z,77.40
2019-05-11T23:06:27.830Z,78.00
2019-05-11T23:08:54.430Z,78.00
2019-05-11T23:11:21.103Z,78.30
2019-05-11T23:13:48.007Z,78.40
2019-05-11T23:16:14.778Z,78.80
2019-05-11T23:18:41.381Z,79.00
2019-05-11T23:21:08.732Z,79.40
2019-05-11T23:23:35.479Z,79.10
2019-05-11T23:26:01.732Z,79.20
2019-05-11T23:28:28.931Z,79.10
2019-05-11T23:30:55.433Z,79.00
2019-05-11T23:33:41.539Z,79.30
2019-05-11T23:36:07.994Z,79.70
2019-05-11T23:38:34.566Z,79.70
2019-05-11T23:41:01.321Z,79.90
2019-05-11T23:43:29.991Z,80.30
2019-05-11T23:45:57.752Z,80.20
2019-05-11T23:48:24.274Z,79.80
2019-05-11T23:50:50.524Z,79.70
2019-05-11T23:53:17.793Z,79.20
2019-05-11T23:55:44.731Z,78.90
2019-05-11T23:58:11.452Z,78.40
